sensor_id;sensor_type;location;lat;lon;timestamp;pressure;altitude;pressure_sealevel;temperature;humidity
31681;BME280;18281;51.364;9.566;2022-11-25T00:00:49;99904.13;;;-1.45;100.00
31681;BME280;18281;51.364;9.566;2022-11-25T00:03:14;99900.72;;;-1.51;100.00
31681;BME280;18281;51.364;9.566;2022-11-25T00:05:40;99899.81;;;-1.43;100.00
31681;BME280;18281;51.364;9.566;2022-11-25T00:08:05;99898.88;;;-1.30;100.00
31681;BME280;18281;51.364;9.566;2022-11-25T00:10:31;99888.53;;;-1.27;100.00
31681;BME280;18281;51.364;9.566;2022-11-25T00:12:56;99891.25;;;-1.45;100.00
31681;BME280;18281;51.364;9.566;2022-11-25T00:15:22;99892.09;;;-1.43;100.00
31681;BME280;18281;51.364;9.566;2022-11-25T00:17:47;99887.03;;;-1.54;100.00
31681;BME280;18281;51.364;9.566;2022-11-25T00:20:13;99889.59;;;-1.53;100.00
31681;BME280;18281;51.364;9.566;2022-11-25T00:22:38;99888.75;;;-1.56;100.00
31681;BME280;18281;51.364;9.566;2022-11-25T00:25:04;99884.41;;;-1.48;100.00
31681;BME280;18281;51.364;9.566;2022-11-25T00:27:29;99872.41;;;-1.48;100.00
31681;BME280;18281;51.364;9.566;2022-11-25T00:29:54;99876.88;;;-1.74;100.00
31681;BME280;18281;51.364;9.566;2022-11-25T00:32:20;99881.00;;;-1.53;100.00
31681;BME280;18281;51.364;9.566;2022-11-25T00:34:46;99877.63;;;-1.57;100.00
31681;BME280;18281;51.364;9.566;2022-11-25T00:37:12;99880.31;;;-1.75;100.00
31681;BME280;18281;51.364;9.566;2022-11-25T00:39:37;99876.81;;;-1.67;100.00
31681;BME280;18281;51.364;9.566;2022-11-25T00:42:03;99884.50;;;-1.60;100.00
31681;BME280;18281;51.364;9.566;2022-11-25T00:44:47;99869.88;;;-1.54;100.00
31681;BME280;18281;51.364;9.566;2022-11-25T00:47:14;99873.38;;;-1.61;100.00
31681;BME280;18281;51.364;9.566;2022-11-25T00:49:42;99872.50;;;-1.58;100.00
31681;BME280;18281;51.364;9.566;2022-11-25T00:52:09;99859.56;;;-1.54;100.00
31681;BME280;18281;51.364;9.566;2022-11-25T00:54:37;99867.16;;;-1.38;100.00
31681;BME280;18281;51.364;9.566;2022-11-25T00:57:02;99868.28;;;-1.70;100.00
31681;BME280;18281;51.364;9.566;2022-11-25T00:59:28;99879.50;;;-1.82;100.00
31681;BME280;18281;51.364;9.566;2022-11-25T01:01:53;99881.25;;;-1.83;100.00
31681;BME280;18281;51.364;9.566;2022-11-25T01:04:19;99877.19;;;-2.25;100.00
31681;BME280;18281;51.364;9.566;2022-11-25T01:06:45;99877.03;;;-1.99;100.00
31681;BME280;18281;51.364;9.566;2022-11-25T01:09:13;99879.53;;;-1.88;100.00
31681;BME280;18281;51.364;9.566;2022-11-25T01:11:39;99884.91;;;-2.25;100.00
31681;BME280;18281;51.364;9.566;2022-11-25T01:14:04;99876.88;;;-1.77;100.00
31681;BME280;18281;51.364;9.566;2022-11-25T01:16:30;99886.38;;;-1.81;100.00
31681;BME280;18281;51.364;9.566;2022-11-25T01:18:58;99884.59;;;-1.73;100.00
31681;BME280;18281;51.364;9.566;2022-11-25T01:21:26;99890.69;;;-1.91;100.00
31681;BME280;18281;51.364;9.566;2022-11-25T01:23:52;99883.75;;;-1.76;100.00
31681;BME280;18281;51.364;9.566;2022-11-25T01:26:23;99890.72;;;-1.94;100.00
31681;BME280;18281;51.364;9.566;2022-11-25T01:28:52;99889.78;;;-1.76;100.00
31681;BME280;18281;51.364;9.566;2022-11-25T01:31:20;99891.66;;;-2.06;100.00
31681;BME280;18281;51.364;9.566;2022-11-25T01:33:50;99896.66;;;-1.84;100.00
31681;BME280;18281;51.364;9.566;2022-11-25T01:36:17;99894.94;;;-1.82;100.00
31681;BME280;18281;51.364;9.566;2022-11-25T01:38:44;99890.47;;;-1.54;100.00
31681;BME280;18281;51.364;9.566;2022-11-25T01:41:12;99894.03;;;-1.73;100.00
31681;BME280;18281;51.364;9.566;2022-11-25T01:43:38;99888.91;;;-1.76;100.00
31681;BME280;18281;51.364;9.566;2022-11-25T01:46:24;99890.69;;;-1.88;100.00
31681;BME280;18281;51.364;9.566;2022-11-25T01:48:51;99892.47;;;-1.94;100.00
31681;BME280;18281;51.364;9.566;2022-11-25T01:51:46;99891.53;;;-1.86;100.00
31681;BME280;18281;51.364;9.566;2022-11-25T01:54:15;99887.91;;;-1.57;100.00
31681;BME280;18281;51.364;9.566;2022-11-25T01:56:47;99890.59;;;-1.74;100.00
31681;BME280;18281;51.364;9.566;2022-11-25T01:59:14;99891.47;;;-1.76;100.00
31681;BME280;18281;51.364;9.566;2022-11-25T02:01:39;99883.81;;;-1.86;100.00
31681;BME280;18281;51.364;9.566;2022-11-25T02:04:05;99884.69;;;-1.90;100.00
31681;BME280;18281;51.364;9.566;2022-11-25T02:06:35;99883.66;;;-1.64;100.00
31681;BME280;18281;51.364;9.566;2022-11-25T02:09:07;99865.94;;;-2.09;100.00
31681;BME280;18281;51.364;9.566;2022-11-25T02:11:35;99875.19;;;-1.78;100.00
31681;BME280;18281;51.364;9.566;2022-11-25T02:14:03;99875.22;;;-1.83;100.00
31681;BME280;18281;51.364;9.566;2022-11-25T02:16:28;99874.16;;;-1.57;100.00
31681;BME280;18281;51.364;9.566;2022-11-25T02:18:54;99873.47;;;-1.76;100.00
31681;BME280;18281;51.364;9.566;2022-11-25T02:21:24;99871.75;;;-1.74;100.00
31681;BME280;18281;51.364;9.566;2022-11-25T02:26:19;99865.72;;;-1.75;100.00
31681;BME280;18281;51.364;9.566;2022-11-25T02:28:45;99867.47;;;-1.77;100.00
31681;BME280;18281;51.364;9.566;2022-11-25T02:31:11;99866.53;;;-1.70;100.00
31681;BME280;18281;51.364;9.566;2022-11-25T02:33:36;99861.47;;;-1.81;100.00
31681;BME280;18281;51.364;9.566;2022-11-25T02:36:05;99864.03;;;-1.79;100.00
31681;BME280;18281;51.364;9.566;2022-11-25T02:41:15;99862.25;;;-1.68;100.00
31681;BME280;18281;51.364;9.566;2022-11-25T02:43:41;99860.66;;;-1.83;100.00
31681;BME280;18281;51.364;9.566;2022-11-25T02:46:09;99856.34;;;-1.81;100.00
31681;BME280;18281;51.364;9.566;2022-11-25T02:48:37;99851.19;;;-1.81;100.00
31681;BME280;18281;51.364;9.566;2022-11-25T02:51:04;99845.16;;;-1.78;100.00
31681;BME280;18281;51.364;9.566;2022-11-25T02:53:30;99840.88;;;-1.81;100.00
31681;BME280;18281;51.364;9.566;2022-11-25T02:55:55;99842.56;;;-1.72;100.00
31681;BME280;18281;51.364;9.566;2022-11-25T02:58:21;99839.25;;;-1.88;100.00
31681;BME280;18281;51.364;9.566;2022-11-25T03:00:48;99842.69;;;-1.90;100.00
31681;BME280;18281;51.364;9.566;2022-11-25T03:03:14;99852.94;;;-1.86;100.00
31681;BME280;18281;51.364;9.566;2022-11-25T03:05:40;99840.09;;;-1.87;100.00
31681;BME280;18281;51.364;9.566;2022-11-25T03:08:06;99840.94;;;-1.87;100.00
31681;BME280;18281;51.364;9.566;2022-11-25T03:10:32;99844.34;;;-1.83;100.00
31681;BME280;18281;51.364;9.566;2022-11-25T03:12:57;99839.25;;;-1.88;100.00
31681;BME280;18281;51.364;9.566;2022-11-25T03:15:23;99852.91;;;-1.79;100.00
31681;BME280;18281;51.364;9.566;2022-11-25T03:17:49;99849.41;;;-1.69;100.00
31681;BME280;18281;51.364;9.566;2022-11-25T03:20:15;99852.03;;;-1.80;100.00
31681;BME280;18281;51.364;9.566;2022-11-25T03:22:41;99849.56;;;-1.95;100.00
31681;BME280;18281;51.364;9.566;2022-11-25T03:25:09;99847.06;;;-2.06;100.00
31681;BME280;18281;51.364;9.566;2022-11-25T03:27:35;99847.16;;;-2.19;100.00
31681;BME280;18281;51.364;9.566;2022-11-25T03:30:01;99845.34;;;-2.04;100.00
31681;BME280;18281;51.364;9.566;2022-11-25T03:32:26;99845.25;;;-1.90;100.00
31681;BME280;18281;51.364;9.566;2022-11-25T03:34:52;99843.44;;;-1.74;100.00
31681;BME280;18281;51.364;9.566;2022-11-25T03:37:18;99837.56;;;-1.96;100.00
31681;BME280;18281;51.364;9.566;2022-11-25T03:39:44;99840.13;;;-1.96;100.00
31681;BME280;18281;51.364;9.566;2022-11-25T03:42:09;99844.41;;;-1.94;100.00
31681;BME280;18281;51.364;9.566;2022-11-25T03:44:34;99852.94;;;-1.83;100.00
31681;BME280;18281;51.364;9.566;2022-11-25T03:47:00;99846.22;;;-2.08;100.00
31681;BME280;18281;51.364;9.566;2022-11-25T03:49:25;99851.31;;;-1.96;100.00
31681;BME280;18281;51.364;9.566;2022-11-25T03:51:50;99851.47;;;-2.25;100.00
31681;BME280;18281;51.364;9.566;2022-11-25T03:54:16;99847.94;;;-2.07;100.00
31681;BME280;18281;51.364;9.566;2022-11-25T03:56:41;99857.38;;;-2.06;100.00
31681;BME280;18281;51.364;9.566;2022-11-25T03:59:07;99845.41;;;-2.17;100.00
31681;BME280;18281;51.364;9.566;2022-11-25T04:01:32;99847.88;;;-2.00;100.00
31681;BME280;18281;51.364;9.566;2022-11-25T04:03:57;99840.13;;;-1.95;100.00
31681;BME280;18281;51.364;9.566;2022-11-25T04:06:23;99841.94;;;-2.06;100.00
31681;BME280;18281;51.364;9.566;2022-11-25T04:08:49;99850.50;;;-2.03;100.00
31681;BME280;18281;51.364;9.566;2022-11-25T04:11:14;99853.06;;;-2.01;100.00
31681;BME280;18281;51.364;9.566;2022-11-25T04:13:40;99846.22;;;-2.08;100.00
31681;BME280;18281;51.364;9.566;2022-11-25T04:16:05;99849.53;;;-1.89;100.00
31681;BME280;18281;51.364;9.566;2022-11-25T04:18:31;99856.53;;;-2.11;100.00
31681;BME280;18281;51.364;9.566;2022-11-25T04:20:56;99857.38;;;-2.11;100.00
31681;BME280;18281;51.364;9.566;2022-11-25T04:23:22;99860.72;;;-1.96;100.00
31681;BME280;18281;51.364;9.566;2022-11-25T04:25:49;99860.91;;;-2.27;100.00
31681;BME280;18281;51.364;9.566;2022-11-25T04:28:14;99856.59;;;-2.24;100.00
31681;BME280;18281;51.364;9.566;2022-11-25T04:30:40;99858.22;;;-2.09;100.00
31681;BME280;18281;51.364;9.566;2022-11-25T04:33:05;99850.44;;;-1.96;100.00
31681;BME280;18281;51.364;9.566;2022-11-25T04:35:30;99856.38;;;-1.84;100.00
31681;BME280;18281;51.364;9.566;2022-11-25T04:37:56;99858.28;;;-2.17;100.00
31681;BME280;18281;51.364;9.566;2022-11-25T04:40:21;99860.78;;;-2.07;100.00
31681;BME280;18281;51.364;9.566;2022-11-25T04:42:47;99862.41;;;-1.92;100.00
31681;BME280;18281;51.364;9.566;2022-11-25T04:45:15;99866.78;;;-2.04;100.00
31681;BME280;18281;51.364;9.566;2022-11-25T04:47:41;99866.75;;;-1.99;100.00
31681;BME280;18281;51.364;9.566;2022-11-25T04:50:15;99878.81;;;-2.13;100.00
31681;BME280;18281;51.364;9.566;2022-11-25T04:52:42;99878.13;;;-2.50;100.00
31681;BME280;18281;51.364;9.566;2022-11-25T04:55:08;99876.31;;;-2.26;100.00
31681;BME280;18281;51.364;9.566;2022-11-25T04:57:33;99871.09;;;-2.13;100.00
31681;BME280;18281;51.364;9.566;2022-11-25T04:59:59;99865.09;;;-2.08;100.00
31681;BME280;18281;51.364;9.566;2022-11-25T05:02:26;99870.34;;;-2.28;100.00
31681;BME280;18281;51.364;9.566;2022-11-25T05:04:53;99872.06;;;-2.30;100.00
31681;BME280;18281;51.364;9.566;2022-11-25T05:07:20;99875.34;;;-2.03;100.00
31681;BME280;18281;51.364;9.566;2022-11-25T05:09:46;99872.03;;;-2.24;100.00
31681;BME280;18281;51.364;9.566;2022-11-25T05:12:15;99878.00;;;-2.17;100.00
31681;BME280;18281;51.364;9.566;2022-11-25T05:14:41;99882.22;;;-2.05;100.00
31681;BME280;18281;51.364;9.566;2022-11-25T05:17:13;99881.44;;;-2.24;100.00
31681;BME280;18281;51.364;9.566;2022-11-25T05:19:38;99883.16;;;-2.17;100.00
31681;BME280;18281;51.364;9.566;2022-11-25T05:22:04;99889.22;;;-2.32;100.00
31681;BME280;18281;51.364;9.566;2022-11-25T05:24:29;99882.28;;;-2.18;100.00
31681;BME280;18281;51.364;9.566;2022-11-25T05:26:55;99885.69;;;-2.12;100.00
31681;BME280;18281;51.364;9.566;2022-11-25T05:29:20;99877.84;;;-1.92;100.00
31681;BME280;18281;51.364;9.566;2022-11-25T05:31:45;99876.97;;;-1.90;100.00
31681;BME280;18281;51.364;9.566;2022-11-25T05:34:11;99873.44;;;-1.72;100.00
31681;BME280;18281;51.364;9.566;2022-11-25T05:36:36;99881.34;;;-2.00;100.00
31681;BME280;18281;51.364;9.566;2022-11-25T05:39:02;99877.97;;;-2.14;100.00
31681;BME280;18281;51.364;9.566;2022-11-25T05:41:27;99880.47;;;-2.02;100.00
31681;BME280;18281;51.364;9.566;2022-11-25T05:43:53;99879.50;;;-1.81;100.00
31681;BME280;18281;51.364;9.566;2022-11-25T05:46:19;99882.22;;;-2.02;100.00
31681;BME280;18281;51.364;9.566;2022-11-25T05:48:44;99876.06;;;-1.84;100.00
31681;BME280;18281;51.364;9.566;2022-11-25T05:51:10;99868.25;;;-1.67;100.00
31681;BME280;18281;51.364;9.566;2022-11-25T05:53:35;99875.00;;;-1.49;100.00
31681;BME280;18281;51.364;9.566;2022-11-25T05:56:03;99875.94;;;-1.64;100.00
31681;BME280;18281;51.364;9.566;2022-11-25T05:58:30;99870.97;;;-1.89;100.00
31681;BME280;18281;51.364;9.566;2022-11-25T06:00:56;99861.44;;;-1.77;100.00
31681;BME280;18281;51.364;9.566;2022-11-25T06:03:26;99872.47;;;-1.60;100.00
31681;BME280;18281;51.364;9.566;2022-11-25T06:05:54;99876.75;;;-1.54;100.00
31681;BME280;18281;51.364;9.566;2022-11-25T06:08:20;99870.00;;;-1.69;100.00
31681;BME280;18281;51.364;9.566;2022-11-25T06:10:45;99864.69;;;-1.49;100.00
31681;BME280;18281;51.364;9.566;2022-11-25T06:13:11;99865.28;;;-1.19;100.00
31681;BME280;18281;51.364;9.566;2022-11-25T06:15:40;99874.72;;;0.25;100.00
31681;BME280;18281;51.364;9.566;2022-11-25T06:18:07;99879.31;;;0.61;100.00
31681;BME280;18281;51.364;9.566;2022-11-25T06:20:32;99877.41;;;0.72;100.00
31681;BME280;18281;51.364;9.566;2022-11-25T06:22:58;99881.25;;;0.46;100.00
31681;BME280;18281;51.364;9.566;2022-11-25T06:25:24;99883.34;;;0.23;100.00
31681;BME280;18281;51.364;9.566;2022-11-25T06:27:49;99872.66;;;-0.14;100.00
31681;BME280;18281;51.364;9.566;2022-11-25T06:30:15;99872.94;;;-0.34;100.00
31681;BME280;18281;51.364;9.566;2022-11-25T06:32:40;99875.50;;;-0.34;100.00
31681;BME280;18281;51.364;9.566;2022-11-25T06:35:06;99886.19;;;-0.65;100.00
31681;BME280;18281;51.364;9.566;2022-11-25T06:37:32;99893.03;;;-0.60;100.00
31681;BME280;18281;51.364;9.566;2022-11-25T06:39:57;99879.78;;;-1.07;100.00
31681;BME280;18281;51.364;9.566;2022-11-25T06:42:23;99875.47;;;-1.08;100.00
31681;BME280;18281;51.364;9.566;2022-11-25T06:44:48;99879.91;;;-1.23;100.00
31681;BME280;18281;51.364;9.566;2022-11-25T06:47:14;99879.84;;;-1.20;100.00
31681;BME280;18281;51.364;9.566;2022-11-25T06:49:39;99882.25;;;-0.98;100.00
31681;BME280;18281;51.364;9.566;2022-11-25T06:52:04;99883.97;;;-1.00;100.00
31681;BME280;18281;51.364;9.566;2022-11-25T06:54:30;99877.91;;;-0.94;100.00
31681;BME280;18281;51.364;9.566;2022-11-25T06:56:55;99878.69;;;-0.85;100.00
31681;BME280;18281;51.364;9.566;2022-11-25T06:59:21;99885.69;;;-0.98;100.00
31681;BME280;18281;51.364;9.566;2022-11-25T07:01:46;99893.53;;;-1.10;100.00
31681;BME280;18281;51.364;9.566;2022-11-25T07:04:12;99905.63;;;-1.20;100.00
31681;BME280;18281;51.364;9.566;2022-11-25T07:06:37;99898.78;;;-1.21;100.00
31681;BME280;18281;51.364;9.566;2022-11-25T07:09:03;99896.81;;;-0.97;100.00
31681;BME280;18281;51.364;9.566;2022-11-25T07:11:34;99897.69;;;-0.97;100.00
31681;BME280;18281;51.364;9.566;2022-11-25T07:14:20;99904.56;;;-0.95;100.00
31681;BME280;18281;51.364;9.566;2022-11-25T07:16:46;99910.50;;;-0.87;100.00
31681;BME280;18281;51.364;9.566;2022-11-25T07:19:16;99908.66;;;-0.77;100.00
31681;BME280;18281;51.364;9.566;2022-11-25T07:21:42;99912.13;;;-0.78;100.00
31681;BME280;18281;51.364;9.566;2022-11-25T07:24:13;99901.78;;;-0.74;100.00
31681;BME280;18281;51.364;9.566;2022-11-25T07:26:39;99910.53;;;-0.92;100.00
31681;BME280;18281;51.364;9.566;2022-11-25T07:29:08;99919.03;;;-0.82;100.00
31681;BME280;18281;51.364;9.566;2022-11-25T07:31:36;99916.34;;;-0.73;100.00
31681;BME280;18281;51.364;9.566;2022-11-25T07:34:14;99909.59;;;-0.86;100.00
31681;BME280;18281;51.364;9.566;2022-11-25T07:36:41;99912.06;;;-0.72;100.00
31681;BME280;18281;51.364;9.566;2022-11-25T07:39:21;99922.41;;;-0.75;100.00
31681;BME280;18281;51.364;9.566;2022-11-25T07:41:53;99918.94;;;-0.71;100.00
31681;BME280;18281;51.364;9.566;2022-11-25T07:44:41;99920.66;;;-0.73;100.00
31681;BME280;18281;51.364;9.566;2022-11-25T07:47:25;99931.88;;;-0.79;100.00
31681;BME280;18281;51.364;9.566;2022-11-25T07:49:50;99934.34;;;-0.68;100.00
31681;BME280;18281;51.364;9.566;2022-11-25T07:52:16;99936.97;;;-0.74;100.00
31681;BME280;18281;51.364;9.566;2022-11-25T07:54:41;99934.47;;;-0.79;100.00
31681;BME280;18281;51.364;9.566;2022-11-25T07:57:09;99942.25;;;-0.82;100.00
31681;BME280;18281;51.364;9.566;2022-11-25T07:59:35;99942.97;;;-0.69;100.00
31681;BME280;18281;51.364;9.566;2022-11-25T08:02:02;99945.50;;;-0.65;100.00
31681;BME280;18281;51.364;9.566;2022-11-25T08:04:31;99943.97;;;-0.86;100.00
31681;BME280;18281;51.364;9.566;2022-11-25T08:06:56;99945.56;;;-0.71;100.00
31681;BME280;18281;51.364;9.566;2022-11-25T08:09:22;99940.31;;;-0.61;100.00
31681;BME280;18281;51.364;9.566;2022-11-25T08:11:52;99939.50;;;-0.67;100.00
31681;BME280;18281;51.364;9.566;2022-11-25T08:14:17;99936.81;;;-0.57;100.00
31681;BME280;18281;51.364;9.566;2022-11-25T08:16:43;99935.97;;;-0.58;100.00
31681;BME280;18281;51.364;9.566;2022-11-25T08:19:11;99942.72;;;-0.48;100.00
31681;BME280;18281;51.364;9.566;2022-11-25T08:21:38;99946.97;;;-0.43;100.00
31681;BME280;18281;51.364;9.566;2022-11-25T08:24:03;99945.41;;;-0.57;100.00
31681;BME280;18281;51.364;9.566;2022-11-25T08:26:32;99943.59;;;-0.47;100.00
31681;BME280;18281;51.364;9.566;2022-11-25T08:29:00;99950.41;;;-0.41;100.00
31681;BME280;18281;51.364;9.566;2022-11-25T08:31:29;99941.81;;;-0.42;100.00
31681;BME280;18281;51.364;9.566;2022-11-25T08:33:55;99938.38;;;-0.42;100.00
31681;BME280;18281;51.364;9.566;2022-11-25T08:36:21;99956.47;;;-0.45;100.00
31681;BME280;18281;51.364;9.566;2022-11-25T08:38:48;99957.94;;;-0.26;100.00
31681;BME280;18281;51.364;9.566;2022-11-25T08:41:23;99966.50;;;0.45;100.00
31681;BME280;18281;51.364;9.566;2022-11-25T08:43:51;99981.50;;;0.80;100.00
31681;BME280;18281;51.364;9.566;2022-11-25T08:46:20;99993.09;;;1.11;100.00
31681;BME280;18281;51.364;9.566;2022-11-25T08:48:45;100001.19;;;1.42;100.00
31681;BME280;18281;51.364;9.566;2022-11-25T08:51:15;100000.00;;;1.59;100.00
31681;BME280;18281;51.364;9.566;2022-11-25T08:53:41;99997.28;;;1.66;100.00
31681;BME280;18281;51.364;9.566;2022-11-25T08:56:08;99996.28;;;1.75;100.00
31681;BME280;18281;51.364;9.566;2022-11-25T08:58:34;99991.25;;;1.67;100.00
31681;BME280;18281;51.364;9.566;2022-11-25T09:01:00;99995.53;;;1.67;100.00
31681;BME280;18281;51.364;9.566;2022-11-25T09:03:26;99996.31;;;1.72;100.00
31681;BME280;18281;51.364;9.566;2022-11-25T09:05:51;99999.03;;;1.66;100.00
31681;BME280;18281;51.364;9.566;2022-11-25T09:08:17;99999.88;;;1.66;100.00
31681;BME280;18281;51.364;9.566;2022-11-25T09:10:43;99997.16;;;1.74;100.00
31681;BME280;18281;51.364;9.566;2022-11-25T09:13:08;100002.25;;;1.77;100.00
31681;BME280;18281;51.364;9.566;2022-11-25T09:15:35;99997.81;;;1.84;100.00
31681;BME280;18281;51.364;9.566;2022-11-25T09:18:02;99995.16;;;1.88;100.00
31681;BME280;18281;51.364;9.566;2022-11-25T09:20:29;99992.91;;;1.70;100.00
31681;BME280;18281;51.364;9.566;2022-11-25T09:22:54;99993.13;;;1.58;100.00
31681;BME280;18281;51.364;9.566;2022-11-25T09:25:21;99997.66;;;1.46;100.00
31681;BME280;18281;51.364;9.566;2022-11-25T09:27:46;99991.78;;;1.38;100.00
31681;BME280;18281;51.364;9.566;2022-11-25T09:30:12;99991.16;;;1.24;100.00
31681;BME280;18281;51.364;9.566;2022-11-25T09:32:38;99981.72;;;1.21;100.00
31681;BME280;18281;51.364;9.566;2022-11-25T09:35:03;99994.78;;;1.13;100.00
31681;BME280;18281;51.364;9.566;2022-11-25T09:37:29;99995.63;;;1.15;100.00
31681;BME280;18281;51.364;9.566;2022-11-25T09:39:54;99996.63;;;1.05;100.00
31681;BME280;18281;51.364;9.566;2022-11-25T09:45:45;100012.72;;;0.65;100.00
31681;BME280;18281;51.364;9.566;2022-11-25T09:48:57;100019.66;;;0.63;100.00
31681;BME280;18281;51.364;9.566;2022-11-25T09:51:38;100023.13;;;0.62;100.00
31681;BME280;18281;51.364;9.566;2022-11-25T09:54:20;100021.97;;;0.80;100.00
31681;BME280;18281;51.364;9.566;2022-11-25T09:56:50;100022.00;;;0.78;100.00
31681;BME280;18281;51.364;9.566;2022-11-25T09:59:20;100025.50;;;0.74;100.00
31681;BME280;18281;51.364;9.566;2022-11-25T10:01:59;100025.44;;;0.80;100.00
31681;BME280;18281;51.364;9.566;2022-11-25T10:04:31;100028.84;;;0.81;100.00
31681;BME280;18281;51.364;9.566;2022-11-25T10:07:00;100029.69;;;0.84;100.00
31681;BME280;18281;51.364;9.566;2022-11-25T10:09:29;100027.03;;;0.87;100.00
31681;BME280;18281;51.364;9.566;2022-11-25T10:12:05;100016.75;;;0.84;100.00
31681;BME280;18281;51.364;9.566;2022-11-25T10:14:43;100017.66;;;0.82;100.00
31681;BME280;18281;51.364;9.566;2022-11-25T10:20:02;100022.75;;;0.85;100.00
31681;BME280;18281;51.364;9.566;2022-11-25T10:22:33;100026.06;;;0.98;100.00
31681;BME280;18281;51.364;9.566;2022-11-25T10:25:01;100032.09;;;0.95;100.00
31681;BME280;18281;51.364;9.566;2022-11-25T10:28:17;100032.13;;;0.94;100.00
31681;BME280;18281;51.364;9.566;2022-11-25T10:30:25;100040.84;;;0.88;100.00
31681;BME280;18281;51.364;9.566;2022-11-25T10:35:54;100051.09;;;1.96;100.00
31681;BME280;18281;51.364;9.566;2022-11-25T10:40:51;100052.81;;;1.50;100.00
31681;BME280;18281;51.364;9.566;2022-11-25T10:43:19;100060.84;;;1.33;100.00
31681;BME280;18281;51.364;9.566;2022-11-25T10:46:29;100056.53;;;1.32;100.00
31681;BME280;18281;51.364;9.566;2022-11-25T10:49:00;100053.94;;;1.32;100.00
31681;BME280;18281;51.364;9.566;2022-11-25T10:51:46;100060.91;;;1.30;100.00
31681;BME280;18281;51.364;9.566;2022-11-25T10:54:26;100058.94;;;1.43;100.00
31681;BME280;18281;51.364;9.566;2022-11-25T10:57:02;100059.78;;;1.45;100.00
31681;BME280;18281;51.364;9.566;2022-11-25T10:59:38;100064.88;;;1.49;100.00
31681;BME280;18281;51.364;9.566;2022-11-25T11:07:18;100075.28;;;1.46;100.00
31681;BME280;18281;51.364;9.566;2022-11-25T11:09:43;100074.28;;;1.53;100.00
31681;BME280;18281;51.364;9.566;2022-11-25T11:12:26;100075.09;;;1.57;100.00
31681;BME280;18281;51.364;9.566;2022-11-25T11:15:12;100079.28;;;1.66;100.00
31681;BME280;18281;51.364;9.566;2022-11-25T11:17:38;100079.28;;;1.66;100.00
31681;BME280;18281;51.364;9.566;2022-11-25T11:22:33;100084.16;;;1.81;100.00
31681;BME280;18281;51.364;9.566;2022-11-25T11:27:43;100091.13;;;1.78;100.00
31681;BME280;18281;51.364;9.566;2022-11-25T11:32:43;100102.34;;;1.78;100.00
31681;BME280;18281;51.364;9.566;2022-11-25T11:35:24;100109.13;;;1.84;100.00
31681;BME280;18281;51.364;9.566;2022-11-25T11:37:58;100104.69;;;1.91;100.00
31681;BME280;18281;51.364;9.566;2022-11-25T11:40:35;100103.06;;;1.86;100.00
31681;BME280;18281;51.364;9.566;2022-11-25T11:43:22;100100.25;;;1.97;100.00
31681;BME280;18281;51.364;9.566;2022-11-25T11:48:25;100094.19;;;2.00;100.00
31681;BME280;18281;51.364;9.566;2022-11-25T11:51:12;100103.56;;;2.05;100.00
31681;BME280;18281;51.364;9.566;2022-11-25T11:56:34;100098.25;;;2.13;100.00
31681;BME280;18281;51.364;9.566;2022-11-25T12:04:27;100114.38;;;2.28;100.00
31681;BME280;18281;51.364;9.566;2022-11-25T12:09:52;100117.78;;;2.30;100.00
31681;BME280;18281;51.364;9.566;2022-11-25T12:12:21;100116.00;;;2.33;100.00
31681;BME280;18281;51.364;9.566;2022-11-25T12:15:03;100116.09;;;2.29;100.00
31681;BME280;18281;51.364;9.566;2022-11-25T12:17:41;100118.50;;;2.36;100.00
31681;BME280;18281;51.364;9.566;2022-11-25T12:20:35;100114.06;;;2.43;100.00
31681;BME280;18281;51.364;9.566;2022-11-25T12:23:18;100111.59;;;2.37;100.00
31681;BME280;18281;51.364;9.566;2022-11-25T12:25:48;100118.94;;;2.59;100.00
31681;BME280;18281;51.364;9.566;2022-11-25T12:28:31;100119.06;;;2.52;100.00
31681;BME280;18281;51.364;9.566;2022-11-25T12:31:14;100115.41;;;2.63;100.00
31681;BME280;18281;51.364;9.566;2022-11-25T12:33:46;100119.06;;;2.52;100.00
31681;BME280;18281;51.364;9.566;2022-11-25T12:41:44;100123.47;;;2.89;100.00
31681;BME280;18281;51.364;9.566;2022-11-25T12:44:19;100128.16;;;2.72;100.00
31681;BME280;18281;51.364;9.566;2022-11-25T12:46:52;100133.09;;;2.84;100.00
31681;BME280;18281;51.364;9.566;2022-11-25T12:55:13;100128.75;;;2.85;100.00
31681;BME280;18281;51.364;9.566;2022-11-25T12:58:18;100132.72;;;3.01;100.00
31681;BME280;18281;51.364;9.566;2022-11-25T13:17:16;100139.13;;;3.24;100.00
31681;BME280;18281;51.364;9.566;2022-11-25T13:19:41;100137.03;;;3.40;100.00
31681;BME280;18281;51.364;9.566;2022-11-25T13:24:44;100141.06;;;3.53;100.00
31681;BME280;18281;51.364;9.566;2022-11-25T13:27:30;100143.63;;;3.55;100.00
31681;BME280;18281;51.364;9.566;2022-11-25T13:29:56;100144.34;;;3.62;100.00
31681;BME280;18281;51.364;9.566;2022-11-25T13:32:32;100144.91;;;3.73;100.00
31681;BME280;18281;51.364;9.566;2022-11-25T13:37:48;100156.97;;;3.76;100.00
31681;BME280;18281;51.364;9.566;2022-11-25T13:42:54;100170.00;;;3.74;100.00
31681;BME280;18281;51.364;9.566;2022-11-25T13:45:43;100165.59;;;3.78;100.00
31681;BME280;18281;51.364;9.566;2022-11-25T13:48:17;100169.19;;;3.72;100.00
31681;BME280;18281;51.364;9.566;2022-11-25T13:50:44;100167.53;;;3.69;100.00
31681;BME280;18281;51.364;9.566;2022-11-25T13:53:26;100168.50;;;3.64;100.00
31681;BME280;18281;51.364;9.566;2022-11-25T13:56:14;100174.31;;;3.75;100.00
31681;BME280;18281;51.364;9.566;2022-11-25T14:01:40;100173.69;;;3.64;100.00
31681;BME280;18281;51.364;9.566;2022-11-25T14:04:17;100173.84;;;3.58;100.00
31681;BME280;18281;51.364;9.566;2022-11-25T14:07:00;100178.25;;;3.54;100.00
31681;BME280;18281;51.364;9.566;2022-11-25T14:12:19;100183.09;;;3.69;100.00
31681;BME280;18281;51.364;9.566;2022-11-25T14:15:04;100187.63;;;3.60;100.00
31681;BME280;18281;51.364;9.566;2022-11-25T14:25:56;100190.47;;;3.86;100.00
31681;BME280;18281;51.364;9.566;2022-11-25T14:28:43;100194.47;;;3.64;100.00
31681;BME280;18281;51.364;9.566;2022-11-25T14:31:18;100196.25;;;3.62;100.00
31681;BME280;18281;51.364;9.566;2022-11-25T14:34:04;100200.84;;;3.50;100.00